Time;durP1;ratioP1;P1;durP2;ratioP2;P2;SDS_P1;SDS_P2;PMS_P1;PMS_P2;Temp;Humidity;BMP_temperature;BMP_pressure;BME280_temperature;BME280_humidity;BME280_pressure;Samples;Min_cycle;Max_cycle;Signal;HPM_P1;HPM_P2
2023/07/05 00:01:29;;;;;;;6.68;3.80;;;18.00;99.90;;;;;;5051630;28;20028;-58
2023/07/05 00:03:55;;;;;;;11.18;4.15;;;18.00;99.90;;;;;;5051455;28;20032;-57
2023/07/05 00:06:21;;;;;;;5.05;3.38;;;18.10;99.90;;;;;;5051277;28;20029;-59
2023/07/05 00:08:46;;;;;;;6.85;3.85;;;18.00;99.90;;;;;;5051230;28;20031;-55
2023/07/05 00:11:12;;;;;;;6.43;3.88;;;18.00;99.90;;;;;;5051355;28;20503;-59
2023/07/05 00:13:38;;;;;;;7.40;3.40;;;18.10;99.90;;;;;;5051350;28;20025;-57
2023/07/05 00:16:04;;;;;;;6.95;3.25;;;18.10;99.90;;;;;;5049992;28;20020;-59
2023/07/05 00:18:30;;;;;;;9.55;3.45;;;18.10;99.90;;;;;;5051143;28;20051;-56
2023/07/05 00:21:05;;;;;;;7.20;3.72;;;18.00;99.90;;;;;;5051300;28;20072;-59
2023/07/05 00:23:31;;;;;;;;;;;18.10;99.90;;;;;;5051654;28;20391;-58
2023/07/05 00:25:57;;;;;;;10.20;3.35;;;18.10;99.90;;;;;;5050950;28;19915;-58
2023/07/05 00:28:23;;;;;;;5.53;3.10;;;18.10;99.90;;;;;;5051158;28;20097;-56
2023/07/05 00:30:49;;;;;;;7.32;2.92;;;18.20;99.90;;;;;;5051195;28;20029;-57
2023/07/05 00:33:14;;;;;;;5.07;2.95;;;18.20;99.90;;;;;;5051145;28;20060;-54
2023/07/05 00:35:52;;;;;;;5.85;2.97;;;18.20;99.90;;;;;;5051043;28;20036;-56
2023/07/05 00:38:19;;;;;;;4.90;2.60;;;18.20;99.90;;;;;;5050985;28;20064;-55
2023/07/05 00:40:45;;;;;;;5.38;2.88;;;18.30;99.90;;;;;;5050988;28;20036;-57
2023/07/05 00:43:13;;;;;;;10.35;2.95;;;18.30;99.90;;;;;;5051110;28;20052;-59
2023/07/05 00:46:01;;;;;;;3.53;2.30;;;18.30;99.90;;;;;;5051140;28;20372;-59
2023/07/05 00:48:38;;;;;;;6.85;2.58;;;18.30;99.90;;;;;;5055088;28;20027;-57
2023/07/05 00:51:23;;;;;;;5.00;2.85;;;18.30;99.90;;;;;;5055045;28;20541;-56
2023/07/05 00:53:49;;;;;;;4.63;2.58;;;18.30;99.90;;;;;;5055067;28;20025;-58
2023/07/05 00:56:22;;;;;;;6.55;2.55;;;18.30;99.90;;;;;;5054830;28;20021;-53
2023/07/05 00:58:50;;;;;;;6.25;2.88;;;18.20;99.90;;;;;;5054775;28;20032;-57
2023/07/05 01:01:16;;;;;;;8.57;2.63;;;18.20;99.90;;;;;;5054924;28;20025;-57
2023/07/05 01:03:43;;;;;;;3.47;2.38;;;18.20;99.90;;;;;;5054881;28;20033;-56
2023/07/05 01:06:12;;;;;;;5.78;2.60;;;18.20;99.90;;;;;;5054796;28;20052;-57
2023/07/05 01:08:38;;;;;;;5.70;2.42;;;18.10;99.90;;;;;;5054631;28;20029;-59
2023/07/05 01:11:14;;;;;;;7.95;2.53;;;18.10;99.90;;;;;;5054570;28;20083;-59
2023/07/05 01:13:46;;;;;;;3.85;2.10;;;18.00;99.90;;;;;;5054838;28;20025;-57
2023/07/05 01:16:34;;;;;;;2.75;1.92;;;17.90;99.90;;;;;;5054659;28;20575;-56
2023/07/05 01:19:22;;;;;;;3.95;2.25;;;17.80;99.90;;;;;;5054287;28;20025;-54
2023/07/05 01:21:56;;;;;;;5.95;2.55;;;17.80;99.90;;;;;;5054128;28;20025;-58
2023/07/05 01:25:01;;;;;;;3.40;2.28;;;17.80;99.90;;;;;;5054389;28;20037;-58
2023/07/05 01:28:03;;;;;;;2.33;1.70;;;17.80;99.90;;;;;;5053535;28;20037;-56
2023/07/05 01:30:32;;;;;;;5.03;2.03;;;17.80;99.90;;;;;;5054476;28;20072;-56
2023/07/05 01:33:02;;;;;;;3.78;2.00;;;17.80;99.90;;;;;;5054232;28;20398;-59
2023/07/05 01:35:44;;;;;;;5.45;2.20;;;17.80;99.90;;;;;;5054352;28;20025;-51
2023/07/05 01:38:09;;;;;;;3.80;2.05;;;17.80;99.90;;;;;;5053897;28;20021;-55
2023/07/05 01:40:36;;;;;;;3.47;2.20;;;17.80;99.90;;;;;;5053982;28;20032;-55
2023/07/05 01:43:05;;;;;;;5.28;2.00;;;17.80;99.90;;;;;;5054042;28;20017;-59
2023/07/05 01:45:53;;;;;;;4.07;2.17;;;17.80;99.90;;;;;;5053855;28;20024;-54
2023/07/05 01:48:45;;;;;;;10.23;2.53;;;17.80;99.90;;;;;;5053828;28;20028;-54
2023/07/05 01:51:19;;;;;;;6.95;1.90;;;17.70;99.90;;;;;;5053915;28;20024;-57
2023/07/05 01:53:58;;;;;;;4.77;2.13;;;17.70;99.90;;;;;;5053827;28;20021;-53
2023/07/05 01:56:33;;;;;;;3.95;1.77;;;17.70;99.90;;;;;;5053681;28;20251;-52
2023/07/05 01:59:04;;;;;;;4.80;2.22;;;17.70;99.90;;;;;;5053543;28;20036;-57
2023/07/05 02:01:31;;;;;;;2.60;2.10;;;17.80;99.90;;;;;;5053788;28;20029;-57
2023/07/05 02:03:58;;;;;;;8.93;2.28;;;17.80;99.90;;;;;;5053525;28;20032;-58
2023/07/05 02:06:26;;;;;;;5.20;2.00;;;17.80;99.90;;;;;;5053562;28;20021;-54
2023/07/05 02:08:52;;;;;;;9.32;1.90;;;17.80;99.90;;;;;;5053368;28;20048;-54
2023/07/05 02:11:18;;;;;;;4.15;1.90;;;17.80;99.90;;;;;;5053594;28;20023;-51
2023/07/05 02:13:44;;;;;;;4.28;2.03;;;17.80;99.90;;;;;;5053275;28;20017;-60
2023/07/05 02:16:09;;;;;;;2.78;1.80;;;17.90;99.90;;;;;;5053407;28;20094;-59
2023/07/05 02:18:35;;;;;;;7.25;2.83;;;17.90;99.90;;;;;;5053248;28;20020;-57
2023/07/05 02:21:01;;;;;;;6.78;2.38;;;17.90;99.90;;;;;;5053341;28;20033;-59
2023/07/05 02:23:26;;;;;;;3.83;1.90;;;17.90;99.90;;;;;;5053228;28;20087;-57
2023/07/05 02:25:52;;;;;;;3.40;2.30;;;17.90;99.90;;;;;;5053348;28;20036;-57
2023/07/05 02:28:18;;;;;;;3.25;1.80;;;17.90;99.90;;;;;;5053037;28;20036;-59
2023/07/05 02:30:43;;;;;;;6.97;2.10;;;17.90;99.90;;;;;;5053192;28;20104;-56
2023/07/05 02:33:09;;;;;;;5.78;2.05;;;17.90;99.90;;;;;;5051752;28;20021;-58
2023/07/05 02:35:39;;;;;;;3.30;1.88;;;17.90;99.90;;;;;;5052989;28;20064;-56
2023/07/05 02:38:05;;;;;;;6.25;2.28;;;17.90;99.90;;;;;;5052780;28;20048;-54
2023/07/05 02:40:31;;;;;;;3.97;2.30;;;17.80;99.90;;;;;;5052843;28;20056;-58
2023/07/05 02:42:59;;;;;;;4.90;2.22;;;17.80;99.90;;;;;;5052839;28;20068;-58
2023/07/05 02:45:26;;;;;;;4.95;2.30;;;17.80;99.90;;;;;;5052810;28;20078;-60
2023/07/05 02:47:52;;;;;;;5.78;2.30;;;17.70;99.90;;;;;;5052641;28;20021;-57
2023/07/05 02:50:17;;;;;;;3.13;2.03;;;17.70;99.90;;;;;;5052765;28;20040;-59
2023/07/05 02:52:44;;;;;;;4.35;2.22;;;17.50;99.90;;;;;;5052693;28;20040;-59
2023/07/05 02:55:09;;;;;;;4.55;1.67;;;17.40;99.90;;;;;;5052504;28;20017;-57
2023/07/05 02:57:35;;;;;;;9.82;2.03;;;17.30;99.90;;;;;;5052358;28;20032;-58
2023/07/05 03:00:02;;;;;;;5.35;1.65;;;17.20;99.90;;;;;;5052420;28;20017;-57
2023/07/05 03:02:28;;;;;;;2.78;1.70;;;17.10;99.90;;;;;;5052871;28;20025;-56
2023/07/05 03:04:53;;;;;;;5.28;1.80;;;17.00;99.90;;;;;;5052510;28;20491;-56
2023/07/05 03:07:19;;;;;;;3.72;1.50;;;17.00;99.90;;;;;;5052194;28;20041;-56
2023/07/05 03:09:48;;;;;;;3.20;1.45;;;16.90;99.90;;;;;;5051657;28;20462;-58
2023/07/05 03:12:14;;;;;;;5.05;1.40;;;16.80;99.90;;;;;;5052545;28;20025;-56
2023/07/05 03:14:40;;;;;;;3.05;1.45;;;16.70;99.90;;;;;;5052493;28;20104;-55
2023/07/05 03:17:05;;;;;;;2.55;1.35;;;16.70;99.90;;;;;;5052182;28;20109;-55
2023/07/05 03:19:31;;;;;;;5.43;1.30;;;16.60;99.90;;;;;;5052254;28;20099;-58
2023/07/05 03:21:56;;;;;;;3.25;1.35;;;16.50;99.90;;;;;;5052109;28;20024;-57
2023/07/05 03:24:22;;;;;;;6.82;1.30;;;16.50;99.90;;;;;;5052036;28;20039;-55
2023/07/05 03:26:51;;;;;;;4.07;1.42;;;16.40;99.90;;;;;;5051928;28;20062;-57
2023/07/05 03:29:17;;;;;;;6.40;1.45;;;16.30;99.90;;;;;;5052066;28;20078;-58
2023/07/05 03:31:43;;;;;;;3.80;1.58;;;16.30;99.90;;;;;;5052171;28;20032;-54
2023/07/05 03:34:09;;;;;;;6.30;1.50;;;16.40;99.90;;;;;;5051915;28;20441;-57
2023/07/05 03:36:34;;;;;;;2.08;1.17;;;16.30;99.90;;;;;;5052045;28;20487;-54
2023/07/05 03:39:00;;;;;;;4.28;1.67;;;16.30;99.90;;;;;;5051477;28;20086;-60
2023/07/05 03:41:26;;;;;;;3.22;1.30;;;16.20;99.90;;;;;;5051723;28;20041;-56
2023/07/05 03:43:58;;;;;;;3.55;1.48;;;16.20;99.90;;;;;;5051719;28;20025;-56
2023/07/05 03:46:24;;;;;;;3.17;1.10;;;16.10;99.90;;;;;;5051617;28;20025;-57
2023/07/05 03:48:49;;;;;;;2.30;1.08;;;16.00;99.90;;;;;;5051518;28;20025;-55
2023/07/05 03:51:18;;;;;;;5.07;1.33;;;16.00;99.90;;;;;;5051394;28;20090;-56
2023/07/05 03:53:51;;;;;;;2.92;1.35;;;16.00;99.90;;;;;;5051348;28;20024;-56
2023/07/05 03:56:17;;;;;;;7.68;1.50;;;15.90;99.90;;;;;;5051538;28;20507;-60
2023/07/05 03:58:43;;;;;;;2.35;1.20;;;15.80;99.90;;;;;;5051403;28;20043;-56
2023/07/05 04:01:15;;;;;;;2.58;1.50;;;15.80;99.90;;;;;;5051519;28;20029;-58
2023/07/05 04:03:41;;;;;;;4.07;1.40;;;15.70;99.90;;;;;;5051405;28;20082;-61
2023/07/05 04:06:07;;;;;;;3.80;1.80;;;15.70;99.90;;;;;;5051087;28;20067;-58
2023/07/05 04:08:32;;;;;;;3.95;1.30;;;15.70;99.90;;;;;;5051393;28;20041;-60
2023/07/05 04:10:58;;;;;;;5.93;1.70;;;15.60;99.90;;;;;;5051303;28;20086;-57
2023/07/05 04:13:24;;;;;;;6.80;1.40;;;15.60;99.90;;;;;;5051261;28;20029;-60
2023/07/05 04:16:04;;;;;;;3.67;1.42;;;15.50;99.90;;;;;;5051289;28;20029;-58
2023/07/05 04:18:31;;;;;;;5.63;1.50;;;15.40;99.90;;;;;;5051101;28;20394;-58
2023/07/05 04:20:57;;;;;;;8.02;1.73;;;15.40;99.90;;;;;;5051148;28;20056;-60
2023/07/05 04:23:24;;;;;;;3.40;1.52;;;15.30;99.90;;;;;;5051231;28;20073;-58
2023/07/05 04:25:57;;;;;;;2.38;1.40;;;15.30;99.90;;;;;;5051116;28;20032;-58
2023/07/05 04:28:23;;;;;;;5.40;1.45;;;15.30;99.90;;;;;;5051043;28;20032;-60
2023/07/05 04:30:48;;;;;;;2.97;1.50;;;15.20;99.90;;;;;;5051228;28;20025;-55
2023/07/05 04:33:13;;;;;;;2.90;1.65;;;15.20;99.90;;;;;;5051024;28;20025;-59
2023/07/05 04:35:48;;;;;;;2.88;1.60;;;15.20;99.90;;;;;;5050951;28;20041;-60
2023/07/05 04:38:14;;;;;;;3.72;1.60;;;15.10;99.90;;;;;;5050822;28;20059;-60
2023/07/05 04:40:39;;;;;;;3.83;1.63;;;15.10;99.90;;;;;;5050989;28;20129;-57
2023/07/05 04:43:05;;;;;;;4.32;1.67;;;15.10;99.90;;;;;;5051060;28;20149;-59
2023/07/05 04:45:31;;;;;;;6.68;2.15;;;15.10;99.90;;;;;;5050889;28;20424;-58
2023/07/05 04:47:56;;;;;;;3.13;1.52;;;15.10;99.90;;;;;;5050836;28;20025;-58
2023/07/05 04:50:22;;;;;;;10.10;2.17;;;15.10;99.90;;;;;;5050892;28;20025;-58
2023/07/05 04:52:47;;;;;;;3.28;1.70;;;15.10;99.90;;;;;;5050989;28;20014;-55
2023/07/05 04:55:13;;;;;;;6.60;2.85;;;15.10;99.90;;;;;;5050790;28;20100;-59
2023/07/05 04:57:38;;;;;;;5.03;1.90;;;15.20;99.90;;;;;;5050764;28;20075;-57
2023/07/05 05:00:05;;;;;;;6.65;2.00;;;15.20;99.90;;;;;;5050865;28;20033;-52
2023/07/05 05:02:31;;;;;;;6.50;2.63;;;15.20;99.90;;;;;;5050880;28;20029;-55
2023/07/05 05:04:56;;;;;;;8.73;2.30;;;15.30;99.90;;;;;;5050798;28;20013;-58
2023/07/05 05:07:22;;;;;;;7.93;2.83;;;15.30;99.90;;;;;;5050455;28;20040;-57
2023/07/05 05:09:47;;;;;;;7.22;2.83;;;15.30;99.90;;;;;;5050733;28;20100;-61
2023/07/05 05:12:13;;;;;;;4.97;2.88;;;15.30;99.90;;;;;;5050732;28;20025;-60
2023/07/05 05:14:38;;;;;;;6.00;2.45;;;15.30;99.90;;;;;;5050656;28;20025;-53
2023/07/05 05:17:04;;;;;;;6.93;2.45;;;15.30;99.90;;;;;;5050532;28;20106;-59
2023/07/05 05:19:29;;;;;;;6.97;2.75;;;15.30;99.90;;;;;;5050708;28;20566;-58
2023/07/05 05:21:55;;;;;;;6.30;2.40;;;15.30;99.90;;;;;;5050711;28;20538;-56
2023/07/05 05:24:20;;;;;;;6.78;3.78;;;15.30;99.90;;;;;;5050500;28;20363;-59
2023/07/05 05:26:47;;;;;;;10.05;2.85;;;15.30;99.90;;;;;;5050431;28;20025;-58
2023/07/05 05:29:12;;;;;;;7.15;2.67;;;15.30;99.90;;;;;;5050667;28;20411;-60
2023/07/05 05:31:38;;;;;;;5.05;2.45;;;15.40;99.90;;;;;;5050732;28;20023;-58
2023/07/05 05:34:04;;;;;;;6.05;2.40;;;15.50;99.90;;;;;;5054393;28;20025;-57
2023/07/05 05:36:29;;;;;;;7.32;3.00;;;15.50;99.90;;;;;;5054431;28;20025;-58
2023/07/05 05:38:55;;;;;;;7.53;2.60;;;15.60;99.90;;;;;;5053942;28;20055;-57
2023/07/05 05:41:20;;;;;;;5.57;3.00;;;15.70;99.90;;;;;;5054123;28;20579;-58
2023/07/05 05:43:46;;;;;;;5.88;2.47;;;15.70;99.90;;;;;;5053952;28;20032;-59
2023/07/05 05:46:11;;;;;;;4.72;2.20;;;15.70;99.90;;;;;;5053757;28;20025;-57
2023/07/05 05:48:37;;;;;;;5.07;3.03;;;15.70;99.90;;;;;;5053889;28;20021;-55
2023/07/05 05:51:03;;;;;;;9.30;2.97;;;15.70;99.90;;;;;;5053902;28;20078;-55
2023/07/05 05:53:28;;;;;;;4.88;2.28;;;15.80;99.90;;;;;;5053811;28;20108;-56
2023/07/05 05:55:57;;;;;;;5.97;2.70;;;15.80;99.90;;;;;;5053835;28;20071;-57
2023/07/05 05:58:23;;;;;;;10.90;3.35;;;15.80;99.90;;;;;;5053644;28;20029;-58
2023/07/05 06:00:49;;;;;;;5.00;2.42;;;15.90;99.90;;;;;;5053691;28;20032;-56
2023/07/05 06:03:15;;;;;;;10.23;2.60;;;15.90;99.90;;;;;;5053580;28;20036;-58
2023/07/05 06:05:41;;;;;;;10.65;2.95;;;16.00;99.90;;;;;;5053398;28;20390;-57
2023/07/05 06:08:07;;;;;;;11.40;3.40;;;16.10;99.90;;;;;;5053311;28;20021;-59
2023/07/05 06:10:33;;;;;;;7.53;2.75;;;16.20;99.90;;;;;;5053490;28;20017;-56
2023/07/05 06:12:59;;;;;;;5.03;1.80;;;16.30;99.90;;;;;;5053409;28;20029;-59
2023/07/05 06:15:25;;;;;;;9.45;2.20;;;16.40;99.90;;;;;;5053383;28;20075;-57
2023/07/05 06:17:50;;;;;;;5.47;2.88;;;16.40;99.90;;;;;;5053250;28;20021;-54
2023/07/05 06:20:16;;;;;;;13.95;2.35;;;16.20;99.90;;;;;;5053239;28;20021;-59
2023/07/05 06:22:42;;;;;;;3.83;2.25;;;16.10;99.90;;;;;;5053350;28;20510;-56
2023/07/05 06:25:10;;;;;;;5.78;1.75;;;16.00;99.90;;;;;;5053020;28;20025;-59
2023/07/05 06:27:36;;;;;;;5.65;2.35;;;16.00;99.90;;;;;;5052985;28;20518;-58
2023/07/05 06:30:02;;;;;;;5.72;2.10;;;16.00;99.90;;;;;;5052926;28;20104;-56
2023/07/05 06:32:28;;;;;;;5.70;1.95;;;15.90;99.90;;;;;;5053115;28;20040;-60
2023/07/05 06:34:54;;;;;;;6.95;2.28;;;15.90;99.90;;;;;;5052999;28;20024;-53
2023/07/05 06:37:19;;;;;;;7.72;2.00;;;15.90;99.90;;;;;;5052767;28;20526;-57
2023/07/05 06:39:45;;;;;;;5.97;2.05;;;16.00;99.90;;;;;;5052884;28;20032;-59
2023/07/05 06:42:10;;;;;;;4.75;2.20;;;16.00;99.90;;;;;;5052798;28;20040;-59
2023/07/05 06:44:36;;;;;;;7.45;1.80;;;16.00;99.90;;;;;;5051663;28;20036;-58
2023/07/05 06:47:02;;;;;;;4.65;2.15;;;16.00;99.90;;;;;;5052781;28;20021;-58
2023/07/05 06:49:27;;;;;;;4.82;1.92;;;15.90;99.90;;;;;;5052623;28;20032;-59
2023/07/05 06:51:53;;;;;;;5.35;1.88;;;15.90;99.90;;;;;;5052810;28;20094;-60
2023/07/05 06:54:20;;;;;;;4.90;1.77;;;16.00;99.90;;;;;;5052559;28;20033;-60
2023/07/05 06:56:46;;;;;;;4.93;1.77;;;16.00;99.90;;;;;;5052601;28;20024;-60
2023/07/05 06:59:11;;;;;;;3.33;1.70;;;16.10;99.90;;;;;;5052370;28;20029;-58
2023/07/05 07:01:37;;;;;;;4.80;1.63;;;16.00;99.90;;;;;;5052815;28;20025;-58
2023/07/05 07:04:05;;;;;;;4.25;1.20;;;16.00;99.90;;;;;;5052478;28;20517;-60
2023/07/05 07:06:32;;;;;;;2.40;1.45;;;15.90;99.90;;;;;;5052491;28;20033;-54
2023/07/05 07:08:58;;;;;;;10.35;1.92;;;15.90;99.90;;;;;;5052282;28;20017;-58
2023/07/05 07:11:24;;;;;;;23.63;2.65;;;15.70;99.90;;;;;;5052231;28;20017;-58
2023/07/05 07:13:49;;;;;;;5.18;2.00;;;15.80;99.90;;;;;;5052286;28;20104;-55
2023/07/05 07:16:16;;;;;;;10.35;2.33;;;15.90;99.90;;;;;;5052200;28;20053;-60
2023/07/05 07:18:45;;;;;;;6.90;1.63;;;16.00;99.90;;;;;;5052411;28;20099;-58
2023/07/05 07:21:12;;;;;;;4.13;1.30;;;16.10;99.90;;;;;;5052265;28;20033;-58
2023/07/05 07:23:38;;;;;;;6.68;1.60;;;16.20;99.90;;;;;;5052156;28;20036;-57
2023/07/05 07:26:13;;;;;;;10.48;1.60;;;16.30;99.90;;;;;;5051826;28;20564;-60
2023/07/05 07:28:39;;;;;;;4.53;1.70;;;16.30;99.90;;;;;;5051972;28;20032;-58
2023/07/05 07:31:09;;;;;;;3.38;1.38;;;16.30;99.90;;;;;;5051913;28;20095;-58
2023/07/05 07:33:35;;;;;;;4.55;1.27;;;16.40;99.90;;;;;;5051989;28;20101;-57
2023/07/05 07:36:12;;;;;;;1.95;1.08;;;16.30;99.90;;;;;;5051916;28;20461;-57
2023/07/05 07:38:38;;;;;;;4.03;1.42;;;16.30;99.90;;;;;;5051636;28;20028;-58
2023/07/05 07:41:04;;;;;;;2.67;1.20;;;16.30;99.90;;;;;;5051765;28;20126;-58
2023/07/05 07:43:30;;;;;;;4.72;1.50;;;16.30;99.90;;;;;;5051743;28;20186;-59
2023/07/05 07:45:55;;;;;;;5.65;1.45;;;16.30;99.90;;;;;;5051603;28;20065;-58
2023/07/05 07:48:21;;;;;;;3.03;1.10;;;16.40;99.90;;;;;;5051561;28;20067;-60
2023/07/05 07:50:50;;;;;;;4.97;1.55;;;16.50;99.90;;;;;;5051808;28;20088;-59
2023/07/05 07:53:16;;;;;;;2.58;1.15;;;16.50;99.90;;;;;;5051708;28;20441;-58
2023/07/05 07:55:41;;;;;;;9.15;0.98;;;16.50;99.90;;;;;;5051349;28;20096;-60
2023/07/05 07:58:08;;;;;;;2.80;1.25;;;16.40;99.90;;;;;;5051404;28;20104;-58
2023/07/05 08:00:34;;;;;;;3.47;1.38;;;16.40;99.90;;;;;;5051680;28;20021;-56
2023/07/05 08:02:59;;;;;;;7.18;1.23;;;16.20;99.90;;;;;;5051709;28;20487;-58
2023/07/05 08:05:25;;;;;;;8.00;2.08;;;16.30;99.90;;;;;;5051475;28;20035;-57
2023/07/05 08:07:51;;;;;;;18.70;1.90;;;16.30;99.90;;;;;;5051163;28;20028;-58
2023/07/05 08:10:16;;;;;;;7.60;1.35;;;16.40;99.90;;;;;;5051497;28;20029;-56
2023/07/05 08:12:42;;;;;;;4.57;1.00;;;16.50;99.90;;;;;;5051533;28;20025;-58
2023/07/05 08:15:08;;;;;;;2.05;0.80;;;16.50;99.90;;;;;;5051432;28;20075;-58
2023/07/05 08:17:34;;;;;;;4.57;1.27;;;16.50;99.90;;;;;;5051426;28;20391;-58
2023/07/05 08:20:00;;;;;;;4.47;1.17;;;16.50;99.90;;;;;;5051488;28;20032;-58
2023/07/05 08:22:26;;;;;;;6.65;0.93;;;16.60;99.90;;;;;;5051409;28;20396;-57
2023/07/05 08:24:51;;;;;;;10.90;1.23;;;17.00;99.90;;;;;;5051333;28;20376;-58
2023/07/05 08:27:17;;;;;;;2.60;0.90;;;17.00;99.90;;;;;;5051367;28;20048;-60
2023/07/05 08:29:42;;;;;;;7.85;1.20;;;16.90;99.90;;;;;;5051808;28;20063;-57
2023/07/05 08:32:09;;;;;;;4.85;1.20;;;16.90;99.90;;;;;;5051470;28;20021;-60
2023/07/05 08:34:35;;;;;;;2.78;1.02;;;16.80;99.90;;;;;;5051367;28;20018;-61
2023/07/05 08:37:01;;;;;;;5.20;1.17;;;16.80;99.90;;;;;;5051020;28;20486;-59
2023/07/05 08:39:27;;;;;;;12.32;1.05;;;16.80;99.90;;;;;;5051290;28;20029;-58
2023/07/05 08:42:08;;;;;;;7.80;1.30;;;16.80;99.90;;;;;;5051425;28;20040;-59
2023/07/05 08:44:51;;;;;;;5.38;1.23;;;16.80;99.90;;;;;;5051157;28;20112;-59
2023/07/05 08:47:23;;;;;;;4.85;1.10;;;16.70;99.90;;;;;;5050870;28;20104;-57
2023/07/05 08:50:04;;;;;;;4.30;1.02;;;16.80;99.90;;;;;;5051219;28;20100;-57
2023/07/05 08:52:36;;;;;;;5.00;1.50;;;16.90;99.90;;;;;;5051359;28;20025;-52
2023/07/05 08:55:08;;;;;;;3.78;1.15;;;16.90;99.90;;;;;;5051125;28;20036;-54
2023/07/05 08:57:49;;;;;;;2.40;1.10;;;16.80;99.90;;;;;;5051016;28;20029;-56
2023/07/05 09:00:23;;;;;;;7.80;1.02;;;16.90;99.90;;;;;;5051006;28;20503;-58
2023/07/05 09:02:49;;;;;;;5.95;1.20;;;16.90;99.90;;;;;;5051133;28;20036;-57
2023/07/05 09:05:16;;;;;;;5.55;1.20;;;17.10;99.90;;;;;;5050971;28;20033;-59
2023/07/05 09:07:45;;;;;;;4.35;1.20;;;17.30;99.90;;;;;;5052655;28;20021;-58
2023/07/05 09:10:13;;;;;;;7.78;1.00;;;17.50;99.90;;;;;;5054831;28;20032;-58
2023/07/05 09:13:03;;;;;;;9.20;1.58;;;17.60;99.90;;;;;;5054840;28;20025;-57
2023/07/05 09:15:35;;;;;;;5.75;1.08;;;17.70;99.90;;;;;;5054760;28;20108;-55
2023/07/05 09:18:03;;;;;;;3.88;0.82;;;17.80;99.90;;;;;;5054470;28;20025;-55
2023/07/05 09:20:39;;;;;;;10.00;1.15;;;17.80;99.90;;;;;;5054702;28;20025;-55
2023/07/05 09:23:12;;;;;;;2.63;1.00;;;17.90;99.90;;;;;;5054610;28;20028;-59
2023/07/05 09:25:42;;;;;;;1.65;0.88;;;17.90;99.90;;;;;;5053195;28;20451;-56
2023/07/05 09:28:21;;;;;;;3.88;1.00;;;18.10;99.90;;;;;;5054102;28;20031;-58
2023/07/05 09:30:47;;;;;;;7.88;1.63;;;18.20;99.90;;;;;;5054619;28;20104;-59
2023/07/05 09:33:19;;;;;;;2.53;0.90;;;18.30;99.90;;;;;;5054540;28;20688;-58
2023/07/05 09:35:46;;;;;;;7.72;1.15;;;18.40;99.90;;;;;;5054553;28;20036;-53
2023/07/05 09:38:30;;;;;;;8.88;1.33;;;18.30;99.90;;;;;;5054209;28;20051;-56
2023/07/05 09:41:09;;;;;;;5.10;1.27;;;18.40;99.90;;;;;;5054316;28;20517;-58
2023/07/05 09:43:35;;;;;;;14.07;1.23;;;18.20;99.90;;;;;;5054046;28;20025;-57
2023/07/05 09:46:11;;;;;;;7.47;1.13;;;18.30;99.90;;;;;;5054152;28;20032;-57
2023/07/05 09:48:42;;;;;;;6.85;1.15;;;18.10;99.90;;;;;;5054145;28;20085;-56
2023/07/05 09:51:11;;;;;;;8.13;1.20;;;18.10;99.90;;;;;;5054088;28;20074;-54
2023/07/05 09:53:51;;;;;;;5.22;1.10;;;18.20;99.90;;;;;;5053972;28;20017;-58
2023/07/05 09:56:29;;;;;;;9.50;1.42;;;18.40;99.90;;;;;;5053828;28;20410;-59
2023/07/05 09:59:15;;;;;;;4.05;1.30;;;18.40;99.90;;;;;;5053732;28;20017;-58
2023/07/05 10:01:42;;;;;;;5.82;1.10;;;18.60;99.90;;;;;;5054101;28;20025;-60
2023/07/05 10:04:08;;;;;;;6.03;1.15;;;18.60;99.90;;;;;;5053551;28;20087;-59
2023/07/05 10:06:38;;;;;;;5.90;1.80;;;18.90;99.90;;;;;;5053569;28;20028;-57
2023/07/05 10:09:24;;;;;;;10.10;1.10;;;18.90;99.90;;;;;;5053505;28;20025;-55
2023/07/05 10:11:53;;;;;;;2.50;1.30;;;19.10;99.90;;;;;;5053649;28;20025;-60
2023/07/05 10:14:29;;;;;;;10.45;1.40;;;18.90;99.90;;;;;;5053654;28;20017;-59
2023/07/05 10:16:58;;;;;;;4.78;0.85;;;19.00;99.90;;;;;;5053564;28;20089;-56
2023/07/05 10:19:32;;;;;;;5.15;0.80;;;19.30;99.90;;;;;;5053328;28;20029;-56
2023/07/05 10:21:57;;;;;;;22.50;1.95;;;19.30;99.90;;;;;;5053540;28;20073;-58
2023/07/05 10:24:24;;;;;;;19.40;1.95;;;19.30;99.90;;;;;;5053235;28;20029;-59
2023/07/05 10:27:08;;;;;;;9.38;1.35;;;19.20;99.90;;;;;;5053465;28;20028;-60
2023/07/05 10:29:35;;;;;;;4.53;1.38;;;19.40;99.90;;;;;;5053471;28;20475;-60
2023/07/05 10:32:00;;;;;;;8.55;1.27;;;19.30;99.90;;;;;;5053378;28;20484;-57
2023/07/05 10:34:27;;;;;;;5.53;1.15;;;19.20;99.90;;;;;;5053319;28;20025;-56
2023/07/05 10:36:54;;;;;;;14.77;1.38;;;19.20;99.90;;;;;;5053301;28;20434;-59
2023/07/05 10:39:23;;;;;;;9.80;1.30;;;19.60;99.90;;;;;;5053017;28;21185;-58
2023/07/05 10:41:57;;;;;;;4.30;1.00;;;19.70;99.90;;;;;;5053480;28;20099;-59
2023/07/05 10:44:32;;;;;;;4.65;0.80;;;19.70;99.90;;;;;;5053458;28;20045;-59
2023/07/05 10:46:59;;;;;;;9.02;0.98;;;19.80;99.90;;;;;;5053148;28;20561;-55
2023/07/05 10:49:27;;;;;;;6.03;1.38;;;20.00;99.90;;;;;;5052771;28;20116;-55
2023/07/05 10:51:56;;;;;;;7.07;1.20;;;19.80;99.90;;;;;;5052966;28;20049;-60
2023/07/05 10:55:03;;;;;;;5.72;1.00;;;19.90;99.90;;;;;;5052833;28;20025;-60
2023/07/05 10:57:38;;;;;;;10.07;1.80;;;20.00;99.90;;;;;;5045036;28;20039;-57
2023/07/05 11:00:18;;;;;;;8.73;1.30;;;19.70;99.90;;;;;;5052688;28;20049;-56
2023/07/05 11:02:55;;;;;;;5.85;1.35;;;19.50;99.90;;;;;;5052642;28;20031;-59
2023/07/05 11:05:43;;;;;;;9.57;1.25;;;19.40;99.90;;;;;;5052536;28;20053;-57
2023/07/05 11:08:26;;;;;;;7.05;1.23;;;19.80;99.90;;;;;;5052242;28;20025;-60
2023/07/05 11:10:53;;;;;;;8.32;1.10;;;19.90;99.90;;;;;;5052526;28;20605;-59
2023/07/05 11:13:20;;;;;;;6.47;1.13;;;19.80;99.90;;;;;;5052381;28;20029;-56
2023/07/05 11:15:46;;;;;;;3.92;1.40;;;20.00;99.90;;;;;;5052456;28;20025;-59
2023/07/05 11:18:18;;;;;;;5.75;1.30;;;20.30;99.90;;;;;;5052103;28;20037;-60
2023/07/05 11:20:56;;;;;;;3.28;1.00;;;20.30;99.90;;;;;;5052322;28;20033;-61
2023/07/05 11:23:46;;;;;;;6.97;1.33;;;19.90;99.90;;;;;;5052133;28;20025;-59
2023/07/05 11:26:29;;;;;;;5.80;1.63;;;19.90;99.90;;;;;;5051928;28;20025;-59
2023/07/05 11:28:54;;;;;;;11.68;1.20;;;20.30;99.90;;;;;;5051810;28;20114;-58
2023/07/05 11:31:29;;;;;;;3.40;1.20;;;20.80;99.90;;;;;;5051436;28;20523;-59
2023/07/05 11:34:25;;;;;;;6.15;1.20;;;21.00;99.90;;;;;;5052009;28;20027;-60
2023/07/05 11:37:14;;;;;;;3.65;1.15;;;21.40;99.90;;;;;;5052019;28;20037;-54
2023/07/05 11:39:51;;;;;;;6.32;1.30;;;21.20;96.90;;;;;;5051905;28;20033;-54
2023/07/05 11:42:20;;;;;;;7.45;1.48;;;20.70;98.60;;;;;;5051905;28;20067;-57
2023/07/05 11:44:48;;;;;;;9.90;1.63;;;20.30;99.20;;;;;;5051822;28;20476;-59
2023/07/05 11:47:22;;;;;;;8.20;1.45;;;20.00;99.60;;;;;;5051545;28;20029;-52
2023/07/05 11:49:55;;;;;;;7.47;1.20;;;19.90;99.90;;;;;;5051914;28;20017;-56
2023/07/05 11:52:21;;;;;;;4.65;1.30;;;20.10;99.90;;;;;;5051825;28;20086;-54
2023/07/05 11:54:53;;;;;;;3.65;1.00;;;20.40;99.90;;;;;;5051525;28;20029;-51
2023/07/05 11:57:19;;;;;;;6.90;1.30;;;21.20;99.90;;;;;;5050203;28;20070;-55
2023/07/05 11:59:59;;;;;;;9.77;1.50;;;21.30;99.90;;;;;;5051877;28;20025;-57
2023/07/05 12:02:38;;;;;;;8.55;1.55;;;21.40;99.90;;;;;;5051633;28;20555;-57
2023/07/05 12:05:10;;;;;;;9.20;1.98;;;21.80;99.60;;;;;;5051668;28;20071;-58
2023/07/05 12:07:37;;;;;;;5.90;2.10;;;22.20;99.30;;;;;;5051549;28;20071;-59
2023/07/05 12:10:05;;;;;;;5.18;1.65;;;21.70;98.50;;;;;;5051666;28;20021;-56
2023/07/05 12:12:38;;;;;;;6.22;1.30;;;21.10;98.40;;;;;;5051581;28;20403;-58
2023/07/05 12:15:04;;;;;;;9.13;1.67;;;20.80;98.30;;;;;;5051437;28;20017;-56
2023/07/05 12:17:32;;;;;;;8.77;1.75;;;20.50;99.90;;;;;;5051474;28;20118;-56
2023/07/05 12:19:58;;;;;;;9.00;1.55;;;20.70;99.90;;;;;;5051530;28;20029;-53
2023/07/05 12:22:25;;;;;;;5.65;1.33;;;20.60;99.90;;;;;;5052365;28;20395;-58
2023/07/05 12:24:53;;;;;;;7.22;1.60;;;20.30;99.90;;;;;;5051478;28;20116;-58
2023/07/05 12:27:30;;;;;;;5.68;1.48;;;20.10;99.90;;;;;;5051288;28;20020;-57
2023/07/05 12:29:58;;;;;;;4.10;1.20;;;20.00;99.90;;;;;;5051248;28;20025;-54
2023/07/05 12:32:26;;;;;;;5.43;1.65;;;20.00;99.90;;;;;;5051259;28;20017;-54
2023/07/05 12:35:11;;;;;;;10.23;1.52;;;19.80;99.90;;;;;;5051379;28;20074;-56
2023/07/05 12:37:38;;;;;;;5.05;1.38;;;20.00;99.90;;;;;;5051215;28;20029;-57
2023/07/05 12:40:12;;;;;;;18.42;2.45;;;20.00;99.90;;;;;;5051220;28;20021;-57
2023/07/05 12:42:59;;;;;;;19.85;2.47;;;19.60;99.90;;;;;;5053313;28;20025;-58
2023/07/05 12:45:39;;;;;;;24.75;2.85;;;19.00;99.90;;;;;;5055475;28;20061;-57
2023/07/05 12:48:21;;;;;;;91.50;6.40;;;19.20;99.90;;;;;;5055101;28;20029;-58
2023/07/05 12:50:47;;;;;;;15.60;2.28;;;19.50;99.90;;;;;;5055453;28;20021;-58
2023/07/05 12:53:20;;;;;;;7.88;1.63;;;19.80;99.90;;;;;;5055002;28;20104;-59
2023/07/05 12:55:56;;;;;;;16.20;1.65;;;20.00;99.90;;;;;;5055399;28;20021;-57
2023/07/05 12:58:24;;;;;;;17.80;1.60;;;20.10;99.90;;;;;;5055234;28;20071;-55